createdAt,value
2016-12-06T00:00:56.797Z,43.59
2016-12-06T00:01:56.821Z,43.49
2016-12-06T00:02:56.847Z,43.3
2016-12-06T00:03:56.571Z,43.2
2016-12-06T00:04:56.905Z,43.2
2016-12-06T00:05:56.641Z,43.11
2016-12-06T00:06:56.653Z,43.4
2016-12-06T00:07:56.986Z,43.4
2016-12-06T00:08:57.019Z,43.11
2016-12-06T00:09:57.035Z,43.11
2016-12-06T00:10:56.756Z,43.18
2016-12-06T00:11:56.795Z,43.18
2016-12-06T00:12:56.818Z,43.18
2016-12-06T00:13:57.151Z,43.2
2016-12-06T00:14:57.179Z,43.18
2016-12-06T00:15:56.892Z,43.28
2016-12-06T00:16:57.224Z,43.28
2016-12-06T00:17:57.248Z,43.37
2016-12-06T00:18:57.282Z,43.08
2016-12-06T00:19:57.306Z,43.08
2016-12-06T00:20:57.342Z,43.18
2016-12-06T00:21:57.356Z,43.18
2016-12-06T00:22:57.392Z,43.37
2016-12-06T00:23:57.417Z,43.18
2016-12-06T00:24:57.441Z,43.18
2016-12-06T00:25:57.166Z,43.18
2016-12-06T00:26:57.187Z,43.08
2016-12-06T00:27:57.519Z,43.08
2016-12-06T00:28:57.544Z,43.18
2016-12-06T00:29:57.277Z,43.37
2016-12-06T00:30:57.603Z,43.08
2016-12-06T00:31:57.326Z,42.99
2016-12-06T00:32:57.654Z,43.08
2016-12-06T00:33:57.680Z,43.08
2016-12-06T00:34:57.401Z,43.28
2016-12-06T00:35:57.449Z,42.89
2016-12-06T00:36:57.763Z,43.37
2016-12-06T00:37:57.787Z,43.18
2016-12-06T00:38:57.812Z,43.37
2016-12-06T00:39:57.534Z,43.18
2016-12-06T00:40:57.569Z,43.08
2016-12-06T00:41:57.897Z,43.37
2016-12-06T00:42:57.614Z,43.18
2016-12-06T00:43:57.651Z,43.18
2016-12-06T00:44:57.972Z,43.37
2016-12-06T00:45:57.698Z,43.18
2016-12-06T00:46:57.725Z,43.28
2016-12-06T00:47:57.754Z,43.28
2016-12-06T00:48:57.783Z,43.28
2016-12-06T00:49:58.107Z,43.37
2016-12-06T00:50:57.829Z,43.28
2016-12-06T00:51:58.166Z,43.08
2016-12-06T00:52:57.889Z,43.28
2016-12-06T00:53:58.223Z,43.18
2016-12-06T00:54:58.243Z,42.89
2016-12-06T00:55:58.277Z,43.28
2016-12-06T00:56:57.988Z,43.37
2016-12-06T00:57:58.319Z,43.18
2016-12-06T00:58:58.041Z,43.08
2016-12-06T00:59:58.070Z,43.18
2016-12-06T01:00:58.103Z,42.99
2016-12-06T01:01:58.130Z,43.37
2016-12-06T01:02:58.160Z,43.18
2016-12-06T01:03:58.489Z,43.08
2016-12-06T01:04:58.514Z,43.18
2016-12-06T01:05:58.534Z,43.28
2016-12-06T01:06:58.267Z,43.37
2016-12-06T01:07:58.592Z,43.35
2016-12-06T01:08:58.317Z,43.08
2016-12-06T01:09:58.338Z,42.99
2016-12-06T01:10:58.370Z,43.18
2016-12-06T01:11:58.699Z,43.18
2016-12-06T01:12:58.720Z,43.54
2016-12-06T01:13:58.749Z,43.28
2016-12-06T01:14:58.784Z,43.18
2016-12-06T01:15:58.497Z,43.26
2016-12-06T01:16:58.526Z,43.18
2016-12-06T01:17:58.883Z,43.64
2016-12-06T01:18:58.884Z,42.8
2016-12-06T01:19:58.904Z,43.26
2016-12-06T01:20:58.933Z,43.54
2016-12-06T01:21:58.966Z,43.64
2016-12-06T01:22:58.691Z,43.54
2016-12-06T01:23:58.707Z,43.26
2016-12-06T01:24:58.743Z,43.16
2016-12-06T01:25:58.764Z,43.35
2016-12-06T01:26:59.096Z,43.26
2016-12-06T01:27:58.818Z,43.64
2016-12-06T01:28:58.848Z,43.35
2016-12-06T01:29:58.868Z,43.35
2016-12-06T01:30:59.206Z,43.54
2016-12-06T01:31:58.927Z,43.45
2016-12-06T01:32:58.949Z,43.74
2016-12-06T01:33:59.292Z,43.54
2016-12-06T01:34:59.000Z,43.84
2016-12-06T01:35:59.331Z,43.64
2016-12-06T01:36:59.048Z,43.64
2016-12-06T01:37:59.073Z,43.54
2016-12-06T01:38:59.414Z,43.45
2016-12-06T01:39:59.143Z,43.45
2016-12-06T01:40:59.167Z,43.54
2016-12-06T01:41:59.192Z,43.84
2016-12-06T01:42:59.212Z,43.64
2016-12-06T01:43:59.538Z,43.35
2016-12-06T01:44:59.570Z,43.54
2016-12-06T01:45:59.294Z,43.45
2016-12-06T01:46:59.626Z,43.64
2016-12-06T01:47:59.348Z,43.45
2016-12-06T01:48:59.371Z,43.54
2016-12-06T01:49:59.705Z,43.64
2016-12-06T01:50:59.723Z,43.45
2016-12-06T01:51:59.450Z,43.45
2016-12-06T01:52:59.775Z,43.54
2016-12-06T01:53:59.808Z,43.64
2016-12-06T01:54:59.834Z,43.54
2016-12-06T01:55:59.861Z,43.54
2016-12-06T01:56:59.887Z,43.64
2016-12-06T01:57:59.609Z,43.45
2016-12-06T01:58:59.636Z,43.54
2016-12-06T01:59:59.655Z,43.54
2016-12-06T02:00:59.997Z,43.54
2016-12-06T02:01:59.722Z,43.54
2016-12-06T02:02:59.747Z,43.54
2016-12-06T02:04:00.071Z,43.45
2016-12-06T02:05:00.103Z,43.45
2016-12-06T02:05:59.829Z,43.45
2016-12-06T02:07:00.149Z,43.45
2016-12-06T02:07:59.878Z,43.45
2016-12-06T02:08:59.903Z,43.54
2016-12-06T02:09:59.924Z,43.45
2016-12-06T02:11:00.272Z,43.35
2016-12-06T02:12:00.281Z,43.45
2016-12-06T02:13:00.002Z,43.45
2016-12-06T02:14:00.031Z,43.54
2016-12-06T02:15:00.366Z,43.64
2016-12-06T02:16:00.396Z,43.45
2016-12-06T02:17:00.112Z,43.45
2016-12-06T02:18:00.141Z,43.54
2016-12-06T02:19:00.475Z,43.54
2016-12-06T02:20:00.196Z,43.64
2016-12-06T02:21:00.524Z,43.54
2016-12-06T02:22:00.554Z,43.54
2016-12-06T02:23:00.575Z,43.45
2016-12-06T02:24:00.602Z,43.45
2016-12-06T02:25:00.323Z,43.54
2016-12-06T02:26:00.352Z,43.54
2016-12-06T02:27:00.381Z,43.52
2016-12-06T02:28:00.404Z,43.62
2016-12-06T02:29:00.433Z,43.54
2016-12-06T02:30:00.762Z,43.35
2016-12-06T02:31:00.488Z,43.54
2016-12-06T02:32:00.519Z,43.62
2016-12-06T02:33:00.840Z,43.54
2016-12-06T02:34:00.877Z,43.62
2016-12-06T02:35:00.585Z,43.64
2016-12-06T02:36:00.616Z,43.52
2016-12-06T02:37:00.648Z,43.62
2016-12-06T02:38:00.672Z,43.62
2016-12-06T02:39:00.998Z,43.43
2016-12-06T02:40:00.721Z,43.52
2016-12-06T02:41:01.046Z,43.52
2016-12-06T02:42:01.078Z,43.45
2016-12-06T02:43:01.101Z,43.52
2016-12-06T02:44:00.824Z,43.62
2016-12-06T02:45:00.853Z,43.43
2016-12-06T02:46:01.185Z,43.43
2016-12-06T02:47:01.207Z,43.62
2016-12-06T02:48:00.923Z,43.52
2016-12-06T02:49:00.959Z,43.43
2016-12-06T02:50:01.292Z,43.52
2016-12-06T02:51:01.317Z,43.54
2016-12-06T02:52:03.195Z,43.43
2016-12-06T02:53:01.387Z,43.52
2016-12-06T02:54:01.393Z,43.52
2016-12-06T02:55:01.421Z,43.52
2016-12-06T02:56:01.476Z,43.52
2016-12-06T02:57:01.165Z,43.52
2016-12-06T02:58:01.494Z,43.43
2016-12-06T02:59:01.528Z,43.62
2016-12-06T03:00:01.557Z,43.52
2016-12-06T03:01:01.580Z,43.52
2016-12-06T03:02:01.601Z,43.43
2016-12-06T03:03:01.629Z,43.43
2016-12-06T03:04:01.661Z,43.62
2016-12-06T03:05:01.385Z,43.52
2016-12-06T03:06:01.401Z,43.52
2016-12-06T03:07:01.738Z,43.43
2016-12-06T03:08:01.785Z,43.52
2016-12-06T03:10:56.632Z,43.43
2016-12-06T03:11:42.060Z,43.43
2016-12-06T03:12:42.077Z,43.62
2016-12-06T03:13:41.793Z,43.43
2016-12-06T03:14:42.134Z,43.62
2016-12-06T03:15:41.845Z,43.52
2016-12-06T03:16:41.875Z,43.14
2016-12-06T03:17:41.908Z,43.33
2016-12-06T03:18:42.228Z,43.33
2016-12-06T03:19:42.262Z,43.52
2016-12-06T03:20:41.978Z,43.71
2016-12-06T03:21:42.004Z,43.52
2016-12-06T03:22:42.338Z,43.43
2016-12-06T03:23:42.056Z,43.33
2016-12-06T03:24:42.085Z,43.14
2016-12-06T03:25:42.410Z,43.23
2016-12-06T03:26:42.442Z,43.62
2016-12-06T03:27:42.160Z,43.43
2016-12-06T03:28:42.192Z,43.52
2016-12-06T03:29:42.240Z,43.33
2016-12-06T03:30:42.551Z,43.71
2016-12-06T03:31:42.574Z,43.62
2016-12-06T03:32:42.291Z,43.14
2016-12-06T03:33:42.323Z,42.94
2016-12-06T03:34:42.649Z,43.52
2016-12-06T03:35:42.377Z,43.23
2016-12-06T03:36:42.398Z,43.23
2016-12-06T03:37:42.424Z,43.23
2016-12-06T03:38:42.751Z,43.43
2016-12-06T03:39:42.476Z,43.14
2016-12-06T03:40:42.807Z,42.85
2016-12-06T03:41:42.834Z,43.43
2016-12-06T03:42:42.861Z,43.14
2016-12-06T03:43:42.888Z,42.76
2016-12-06T03:44:42.915Z,43.14
2016-12-06T03:45:42.967Z,43.14
2016-12-06T03:46:42.956Z,42.85
2016-12-06T03:47:42.687Z,43.14
2016-12-06T03:48:42.718Z,43.23
2016-12-06T03:49:42.739Z,42.94
2016-12-06T03:50:43.076Z,42.94
2016-12-06T03:51:43.092Z,43.04
2016-12-06T03:52:42.816Z,43.23
2016-12-06T03:53:42.849Z,43.62
2016-12-06T03:54:42.870Z,43.43
2016-12-06T03:55:43.203Z,43.23
2016-12-06T03:56:43.225Z,43.33
2016-12-06T03:57:43.252Z,43.33
2016-12-06T03:58:43.281Z,42.94
2016-12-06T03:59:42.997Z,43.23
2016-12-06T04:00:43.034Z,43.14
2016-12-06T04:01:43.360Z,43.23
2016-12-06T04:02:43.076Z,43.33
2016-12-06T04:03:43.109Z,43.43
2016-12-06T04:04:43.129Z,43.04
2016-12-06T04:05:43.467Z,43.14
2016-12-06T04:06:43.186Z,43.23
2016-12-06T04:07:43.209Z,43.33
2016-12-06T04:08:43.232Z,43.33
2016-12-06T04:09:43.264Z,43.14
2016-12-06T04:10:43.297Z,43.14
2016-12-06T04:11:43.314Z,43.23
2016-12-06T04:12:43.375Z,43.33
2016-12-06T04:13:43.372Z,43.33
2016-12-06T04:14:43.392Z,43.14
2016-12-06T04:15:43.416Z,43.14
2016-12-06T04:16:43.458Z,43.33
2016-12-06T04:17:43.774Z,43.33
2016-12-06T04:18:43.503Z,43.23
2016-12-06T04:19:43.526Z,43.23
2016-12-06T04:20:43.850Z,43.33
2016-12-06T04:21:43.572Z,43.23
2016-12-06T04:22:43.606Z,43.33
2016-12-06T04:23:43.630Z,43.23
2016-12-06T04:24:43.664Z,43.31
2016-12-06T04:25:43.683Z,43.23
2016-12-06T04:26:44.005Z,43.14
2016-12-06T04:27:44.037Z,43.33
2016-12-06T04:28:44.065Z,43.14
2016-12-06T04:29:44.082Z,43.21
2016-12-06T04:30:44.112Z,43.12
2016-12-06T04:31:43.837Z,43.12
2016-12-06T04:32:44.168Z,43.31
2016-12-06T04:33:44.196Z,43.14
2016-12-06T04:34:44.222Z,43.21
2016-12-06T04:35:43.939Z,43.12
2016-12-06T04:36:44.271Z,43.31
2016-12-06T04:37:44.296Z,43.14
2016-12-06T04:38:44.329Z,43.21
2016-12-06T04:40:44.375Z,43.12
2016-12-06T04:41:44.098Z,43.12
2016-12-06T04:42:44.425Z,43.12
2016-12-06T04:43:44.452Z,43.12
2016-12-06T04:44:44.173Z,43.14
2016-12-06T04:45:44.502Z,43.21
2016-12-06T04:46:44.519Z,43.12
2016-12-06T04:47:44.563Z,43.02
2016-12-06T04:48:44.280Z,43.12
2016-12-06T04:49:44.605Z,43.12
2016-12-06T04:50:44.629Z,43.02
2016-12-06T04:51:44.362Z,43.21
2016-12-06T04:52:44.383Z,43.12
2016-12-06T04:53:44.408Z,43.14
2016-12-06T04:54:44.429Z,43.12
2016-12-06T04:55:44.459Z,43.12
2016-12-06T04:56:44.492Z,43.02
2016-12-06T04:57:44.510Z,43.21
2016-12-06T04:58:44.535Z,43.04
2016-12-06T04:59:44.860Z,43.12
2016-12-06T05:00:44.905Z,43.02
2016-12-06T05:01:44.923Z,43.02
2016-12-06T05:02:44.644Z,43.02
2016-12-06T05:03:44.672Z,43.12
2016-12-06T05:04:44.998Z,43.12
2016-12-06T05:05:45.033Z,43.02
2016-12-06T05:06:44.758Z,43.12
2016-12-06T05:07:44.774Z,43.12
2016-12-06T05:08:44.799Z,43.12
2016-12-06T05:09:45.131Z,43.31
2016-12-06T05:10:44.860Z,43.12
2016-12-06T05:11:45.173Z,43.12
2016-12-06T05:12:44.929Z,43.21
2016-12-06T05:13:44.929Z,43.12
2016-12-06T05:14:44.953Z,43.31
2016-12-06T05:15:44.987Z,43.12
2016-12-06T05:16:45.308Z,43.21
2016-12-06T05:17:45.341Z,43.31
2016-12-06T05:18:45.353Z,42.83
2016-12-06T05:19:45.081Z,43.21
2016-12-06T05:20:45.415Z,43.21
2016-12-06T05:21:45.135Z,43.21
2016-12-06T05:22:45.468Z,43.12
2016-12-06T05:23:45.492Z,42.93
2016-12-06T05:24:45.522Z,43.31
2016-12-06T05:25:45.544Z,43.31
2016-12-06T05:26:45.274Z,43.12
2016-12-06T05:27:45.295Z,43.12
2016-12-06T05:28:45.616Z,43.12
2016-12-06T05:29:45.349Z,43.31
2016-12-06T05:30:45.378Z,43.21
2016-12-06T05:31:45.396Z,43.31
2016-12-06T05:32:45.727Z,43.12
2016-12-06T05:33:45.749Z,43.12
2016-12-06T05:34:45.472Z,43.12
2016-12-06T05:35:45.803Z,43.12
2016-12-06T05:36:45.536Z,43.21
2016-12-06T05:37:45.858Z,43.33
2016-12-06T05:38:45.879Z,43.21
2016-12-06T05:39:45.907Z,43.12
2016-12-06T05:40:45.620Z,42.93
2016-12-06T05:41:45.653Z,42.94
2016-12-06T05:42:45.686Z,42.85
2016-12-06T05:43:45.715Z,43.04
2016-12-06T05:44:45.735Z,42.94
2016-12-06T05:45:45.764Z,43.04
2016-12-06T05:46:45.779Z,42.37
2016-12-06T05:47:45.804Z,42.76
2016-12-06T05:48:45.840Z,42.85
2016-12-06T05:49:45.863Z,42.76
2016-12-06T05:50:45.892Z,42.47
2016-12-06T05:51:45.920Z,42.76
2016-12-06T05:52:45.965Z,42.94
2016-12-06T05:53:45.962Z,42.94
2016-12-06T05:54:46.302Z,42.94
2016-12-06T05:55:46.328Z,42.66
2016-12-06T05:56:46.044Z,42.85
2016-12-06T05:57:46.077Z,42.94
2016-12-06T05:58:46.401Z,43.16
2016-12-06T05:59:46.122Z,42.56
2016-12-06T06:00:46.163Z,42.47
2016-12-06T06:01:46.215Z,42.37
2016-12-06T06:02:46.196Z,42.85
2016-12-06T06:03:46.228Z,42.18
2016-12-06T06:04:46.257Z,42.56
2016-12-06T06:05:46.278Z,42.56
2016-12-06T06:06:46.307Z,42.56
2016-12-06T06:07:46.642Z,42.47
2016-12-06T06:08:46.662Z,42.58
2016-12-06T06:09:46.686Z,42.58
2016-12-06T06:10:46.713Z,42.27
2016-12-06T06:11:46.734Z,42.49
2016-12-06T06:12:46.463Z,42
2016-12-06T06:13:46.487Z,42.1
2016-12-06T06:14:46.820Z,42.1
2016-12-06T06:15:46.845Z,42.3
2016-12-06T06:16:46.873Z,42.1
2016-12-06T06:17:46.586Z,42
2016-12-06T06:18:46.923Z,41.91
2016-12-06T06:19:46.646Z,42.68
2016-12-06T06:20:46.676Z,42.2
2016-12-06T06:21:47.006Z,42.68
2016-12-06T06:22:46.722Z,41.91
2016-12-06T06:23:47.055Z,42.2
2016-12-06T06:24:47.074Z,42.3
2016-12-06T06:25:47.107Z,42
2016-12-06T06:26:47.136Z,42.49
2016-12-06T06:27:46.852Z,42.2
2016-12-06T06:28:47.190Z,42.2
2016-12-06T06:29:47.211Z,42.1
2016-12-06T06:30:46.935Z,42.3
2016-12-06T06:31:47.329Z,42.3
2016-12-06T06:32:46.985Z,42
2016-12-06T06:33:47.309Z,42.1
2016-12-06T06:34:47.338Z,42
2016-12-06T06:35:47.363Z,42.58
2016-12-06T06:36:47.091Z,42.39
2016-12-06T06:37:47.117Z,42.39
2016-12-06T06:38:47.140Z,42.58
2016-12-06T06:39:47.469Z,42.58
2016-12-06T06:40:47.502Z,42.58
2016-12-06T06:41:47.522Z,42.2
2016-12-06T06:42:47.546Z,42.2
2016-12-06T06:43:47.276Z,42.58
2016-12-06T06:44:47.604Z,42.49
2016-12-06T06:45:47.321Z,42.49
2016-12-06T06:46:47.350Z,42.39
2016-12-06T06:47:47.379Z,42.58
2016-12-06T06:48:47.396Z,42.58
2016-12-06T06:49:47.420Z,42.58
2016-12-06T06:50:47.466Z,42.49
2016-12-06T06:51:47.484Z,42.58
2016-12-06T06:52:47.502Z,42.3
2016-12-06T06:53:47.843Z,42.39
2016-12-06T06:54:47.868Z,42.3
2016-12-06T06:55:47.577Z,42.58
2016-12-06T06:56:47.917Z,42.3
2016-12-06T06:57:47.637Z,42.3
2016-12-06T06:58:47.970Z,42.49
2016-12-06T06:59:47.691Z,42.3
2016-12-06T07:00:47.713Z,42.58
2016-12-06T07:01:48.049Z,42.58
2016-12-06T07:02:47.767Z,42.39
2016-12-06T07:03:48.095Z,42.39
2016-12-06T07:04:48.127Z,42.3
2016-12-06T07:05:47.851Z,42.3
2016-12-06T07:06:47.880Z,42.58
2016-12-06T07:07:47.904Z,42.2
2016-12-06T07:08:48.234Z,42.2
2016-12-06T07:09:48.280Z,42.1
2016-12-06T07:10:47.979Z,42.2
2016-12-06T07:11:48.002Z,42.1
2016-12-06T07:12:48.334Z,42.3
2016-12-06T07:13:48.058Z,42.3
2016-12-06T07:14:48.379Z,41.82
2016-12-06T07:15:48.418Z,42.49
2016-12-06T07:16:48.141Z,42.2
2016-12-06T07:17:48.468Z,42.3
2016-12-06T07:18:48.490Z,41.91
2016-12-06T07:19:48.525Z,42.39
2016-12-06T07:20:48.243Z,42.2
2016-12-06T07:21:48.574Z,42.1
2016-12-06T07:22:48.600Z,42
2016-12-06T07:23:48.625Z,42.39
2016-12-06T07:24:48.647Z,42.03
2016-12-06T07:25:48.377Z,41.91
2016-12-06T07:26:48.406Z,42
2016-12-06T07:27:48.434Z,41.91
2016-12-06T07:28:48.447Z,42.2
2016-12-06T07:29:48.476Z,42.32
2016-12-06T07:30:48.813Z,41.82
2016-12-06T07:31:48.842Z,42
2016-12-06T07:32:48.866Z,42.32
2016-12-06T07:33:48.585Z,42.22
2016-12-06T07:34:48.607Z,42.03
2016-12-06T07:35:48.644Z,42.03
2016-12-06T07:36:48.661Z,42.1
2016-12-06T07:37:48.686Z,42.1
2016-12-06T07:38:49.019Z,42.22
2016-12-06T07:39:48.744Z,42.2
2016-12-06T07:40:48.774Z,42.12
2016-12-06T07:41:49.106Z,42
2016-12-06T07:42:49.122Z,42.22
2016-12-06T07:43:49.149Z,42.22
2016-12-06T07:44:48.866Z,42.2
2016-12-06T07:45:48.899Z,42.3
2016-12-06T07:46:49.236Z,41.83
2016-12-06T07:47:48.956Z,42.2
2016-12-06T07:48:48.983Z,42.1
2016-12-06T07:49:49.298Z,42
2016-12-06T07:50:49.331Z,42.1
2016-12-06T07:51:49.059Z,42
2016-12-06T07:52:49.084Z,41.91
2016-12-06T07:53:49.113Z,41.91
2016-12-06T07:54:49.142Z,42
2016-12-06T07:55:49.469Z,42.1
2016-12-06T07:56:49.199Z,42.3
2016-12-06T07:57:49.515Z,42.39
2016-12-06T07:58:49.240Z,42
2016-12-06T07:59:49.269Z,41.91
2016-12-06T08:00:49.293Z,42
2016-12-06T08:01:49.630Z,42
2016-12-06T08:02:49.354Z,42.3
2016-12-06T08:03:49.384Z,41.91
2016-12-06T08:04:49.705Z,42.2
2016-12-06T08:05:49.429Z,42.58
2016-12-06T08:06:49.454Z,42
2016-12-06T08:07:49.485Z,42.2
2016-12-06T08:08:49.839Z,42.3
2016-12-06T08:09:49.838Z,42
2016-12-06T08:10:49.864Z,42.3
2016-12-06T08:11:49.890Z,41.91
2016-12-06T08:12:49.609Z,42.39
2016-12-06T08:13:49.947Z,42.3
2016-12-06T08:14:49.667Z,42.39
2016-12-06T08:15:49.688Z,42.2
2016-12-06T08:16:49.717Z,42.39
2016-12-06T08:17:49.742Z,42.39
2016-12-06T08:18:49.766Z,42.39
2016-12-06T08:19:49.794Z,42.3
2016-12-06T08:20:49.824Z,42.2
2016-12-06T08:21:49.840Z,42.39
2016-12-06T08:22:49.881Z,42.1
2016-12-06T08:23:50.215Z,42.3
2016-12-06T08:24:49.935Z,42.1
2016-12-06T08:25:49.955Z,42.3
2016-12-06T08:26:50.288Z,42.3
2016-12-06T08:27:50.009Z,42.3
2016-12-06T08:28:50.341Z,42.2
2016-12-06T08:29:50.366Z,42.3
2016-12-06T08:30:50.395Z,42.3
2016-12-06T08:31:50.419Z,42.3
2016-12-06T08:32:50.144Z,42.2
2016-12-06T08:33:50.160Z,42.3
2016-12-06T08:34:50.486Z,42.3
2016-12-06T08:35:50.219Z,42.3
2016-12-06T08:36:50.245Z,42.39
2016-12-06T08:37:50.268Z,42.39
2016-12-06T08:38:50.608Z,42.39
2016-12-06T08:39:50.329Z,42.3
2016-12-06T08:40:50.650Z,42.39
2016-12-06T08:41:50.682Z,42.1
2016-12-06T08:42:50.403Z,42.3
2016-12-06T08:43:50.431Z,42.39
2016-12-06T08:44:50.757Z,42.1
2016-12-06T08:45:50.486Z,42.39
2016-12-06T08:46:50.510Z,42.39
2016-12-06T08:47:50.535Z,42.3
2016-12-06T08:48:50.867Z,42.3
2016-12-06T08:49:50.585Z,42
2016-12-06T08:50:50.609Z,42.1
2016-12-06T08:51:50.643Z,42.39
2016-12-06T08:52:50.974Z,42.2
2016-12-06T08:53:50.695Z,42
2016-12-06T08:54:51.023Z,42.68
2016-12-06T08:55:51.048Z,42.1
2016-12-06T08:56:50.773Z,42.1
2016-12-06T08:57:51.102Z,42.39
2016-12-06T08:58:50.827Z,42.39
2016-12-06T08:59:51.161Z,42.39
2016-12-06T09:00:50.876Z,42.39
2016-12-06T09:01:50.905Z,42.3
2016-12-06T09:02:51.233Z,42
2016-12-06T09:03:50.962Z,42.1
2016-12-06T09:04:51.280Z,42.1
2016-12-06T09:05:51.009Z,42.49
2016-12-06T09:06:51.344Z,42.39
2016-12-06T09:07:51.064Z,42.3
2016-12-06T09:08:51.094Z,42.49
2016-12-06T09:09:51.114Z,42.58
2016-12-06T09:10:51.141Z,42.58
2016-12-06T09:11:51.467Z,42.39
2016-12-06T09:12:51.188Z,42.39
2016-12-06T09:13:51.525Z,42.39
2016-12-06T09:14:51.273Z,42.39
2016-12-06T09:15:51.274Z,42.47
2016-12-06T09:16:51.599Z,42.49
2016-12-06T09:17:51.327Z,42.39
2016-12-06T09:18:51.656Z,42.49
2016-12-06T09:19:51.389Z,42.49
2016-12-06T09:20:51.406Z,42.56
2016-12-06T09:21:51.731Z,42.49
2016-12-06T09:22:51.769Z,42.58
2016-12-06T09:23:51.483Z,42.2
2016-12-06T09:24:51.808Z,42.56
2016-12-06T09:25:51.839Z,42.49
2016-12-06T09:26:51.870Z,42.87
2016-12-06T09:27:51.588Z,42.66
2016-12-06T09:28:51.619Z,42.87
2016-12-06T09:29:51.943Z,42.39
2016-12-06T09:30:51.977Z,42.49
2016-12-06T09:31:51.717Z,42.39
2016-12-06T09:32:51.722Z,42.49
2016-12-06T09:33:52.051Z,42.49
2016-12-06T09:34:51.779Z,43.04
2016-12-06T09:35:51.804Z,43.07
2016-12-06T09:36:51.821Z,43.07
2016-12-06T09:37:51.854Z,43.14
2016-12-06T09:38:52.178Z,43.07
2016-12-06T09:39:51.915Z,42.49
2016-12-06T09:40:52.235Z,43.07
2016-12-06T09:41:52.264Z,43.04
2016-12-06T09:42:52.293Z,43.07
2016-12-06T09:43:52.009Z,43.07
2016-12-06T09:44:52.030Z,42.87
2016-12-06T09:45:52.364Z,42.49
2016-12-06T09:46:52.392Z,42.66
2016-12-06T09:47:52.116Z,42.85
2016-12-06T09:48:52.146Z,42.97
2016-12-06T09:49:52.478Z,42.87
2016-12-06T09:50:52.195Z,42.87
2016-12-06T09:51:52.524Z,42.87
2016-12-06T09:52:52.244Z,42.87
2016-12-06T09:53:52.265Z,42.94
2016-12-06T09:54:52.597Z,42.97
2016-12-06T09:55:52.625Z,42.94
2016-12-06T09:56:52.656Z,43.43
2016-12-06T09:57:52.383Z,42.94
2016-12-06T09:58:52.709Z,42.85
2016-12-06T09:59:52.429Z,42.85
2016-12-06T10:00:52.758Z,43.33
2016-12-06T10:01:52.489Z,43.45
2016-12-06T10:02:52.811Z,43.43
2016-12-06T10:03:52.835Z,42.85
2016-12-06T10:04:52.879Z,43.43
2016-12-06T10:05:52.893Z,43.14
2016-12-06T10:06:52.613Z,42.66
2016-12-06T10:07:52.947Z,42.47
2016-12-06T10:08:52.664Z,43.33
2016-12-06T10:09:52.996Z,43.43
2016-12-06T10:10:53.028Z,43.04
2016-12-06T10:11:53.050Z,43.04
2016-12-06T10:12:53.074Z,43.45
2016-12-06T10:13:52.795Z,43.43
2016-12-06T10:14:52.828Z,42.77
2016-12-06T10:15:52.877Z,42.87
2016-12-06T10:16:52.877Z,43.04
2016-12-06T10:17:53.209Z,42.76
2016-12-06T10:18:53.230Z,42.85
2016-12-06T10:19:53.262Z,42.87
2016-12-06T10:20:52.979Z,42.76
2016-12-06T10:21:53.318Z,42.85
2016-12-06T10:22:53.341Z,42.77
2016-12-06T10:23:53.066Z,42.66
2016-12-06T10:24:53.087Z,42.76
2016-12-06T10:25:53.115Z,42.58
2016-12-06T10:26:53.445Z,42.85
2016-12-06T10:27:53.464Z,42.47
2016-12-06T10:28:53.209Z,42.76
2016-12-06T10:29:53.222Z,42.97
2016-12-06T10:30:53.551Z,42.87
2016-12-06T10:31:53.273Z,43.07
2016-12-06T10:32:53.301Z,42.97
2016-12-06T10:33:53.660Z,43.04
2016-12-06T10:34:53.661Z,42.68
2016-12-06T10:35:53.374Z,42.97
2016-12-06T10:36:53.407Z,42.58
2016-12-06T10:37:53.734Z,43.45
2016-12-06T10:38:53.457Z,42.97
2016-12-06T10:39:53.789Z,42.58
2016-12-06T10:40:53.809Z,42.58
2016-12-06T10:41:53.835Z,43.35
2016-12-06T10:42:53.863Z,42.87
2016-12-06T10:43:53.892Z,42.97
2016-12-06T10:44:53.921Z,43.16
2016-12-06T10:45:53.646Z,43.07
2016-12-06T10:46:53.974Z,43.16
2016-12-06T10:47:53.995Z,42.58
2016-12-06T10:48:54.027Z,42.68
2016-12-06T10:49:53.748Z,42.68
2016-12-06T10:50:54.082Z,42.39
2016-12-06T10:51:53.806Z,42.58
2016-12-06T10:52:54.143Z,42.58
2016-12-06T10:53:53.859Z,42.7
2016-12-06T10:54:53.879Z,42.03
2016-12-06T10:55:54.209Z,42.2
2016-12-06T10:56:54.241Z,42.5
2016-12-06T10:57:54.261Z,42.1
2016-12-06T10:58:53.987Z,42.03
2016-12-06T10:59:54.369Z,42.12
2016-12-06T11:00:54.044Z,42.03
2016-12-06T11:01:54.373Z,42.03
2016-12-06T11:02:54.405Z,42.03
2016-12-06T11:03:54.122Z,42.22
2016-12-06T11:04:54.146Z,42.03
2016-12-06T11:05:54.176Z,42.32
2016-12-06T11:06:54.201Z,42.41
2016-12-06T11:07:54.529Z,42.41
2016-12-06T11:08:54.571Z,42.22
2016-12-06T11:09:54.582Z,42.03
2016-12-06T11:10:54.615Z,42.12
2016-12-06T11:11:54.636Z,42.12
2016-12-06T11:12:54.676Z,42.32
2016-12-06T11:13:54.693Z,42.22
2016-12-06T11:14:54.718Z,42.12
2016-12-06T11:15:54.443Z,42.12
2016-12-06T11:16:54.771Z,42.41
2016-12-06T11:17:54.804Z,41.93
2016-12-06T11:18:54.821Z,41.74
2016-12-06T11:19:54.849Z,41.74
2016-12-06T11:20:54.873Z,41.74
2016-12-06T11:21:54.896Z,41.64
2016-12-06T11:22:54.939Z,41.76
2016-12-06T11:23:54.655Z,41.95
2016-12-06T11:24:54.677Z,42.14
2016-12-06T11:25:55.014Z,42.43
2016-12-06T11:26:54.728Z,37.34
2016-12-06T11:27:54.759Z,36.95
2016-12-06T11:28:55.096Z,36.93
2016-12-06T11:29:54.812Z,37.68
2016-12-06T11:30:55.141Z,38.54
2016-12-06T11:31:55.170Z,41.31
2016-12-06T11:32:55.194Z,43.14
2016-12-06T11:33:55.219Z,42.87
2016-12-06T11:34:55.254Z,43.16
2016-12-06T11:35:54.977Z,43.07
2016-12-06T11:36:54.994Z,42.97
2016-12-06T11:37:55.026Z,42.87
2016-12-06T11:38:55.355Z,42.87
2016-12-06T11:39:55.075Z,43.16
2016-12-06T11:40:55.404Z,42.58
2016-12-06T11:41:55.437Z,42.2
2016-12-06T11:42:55.463Z,42.6
2016-12-06T11:43:55.495Z,42.6
2016-12-06T11:44:55.508Z,42.22
2016-12-06T11:45:55.239Z,42.22
2016-12-06T11:46:55.272Z,42.41
2016-12-06T11:47:55.601Z,42.03
2016-12-06T11:48:55.617Z,41.83
2016-12-06T11:49:55.350Z,42.12
2016-12-06T11:50:55.374Z,42.32
2016-12-06T11:51:55.700Z,42.41
2016-12-06T11:52:55.426Z,42.24
2016-12-06T11:53:55.449Z,42.41
2016-12-06T11:54:55.478Z,42.33
2016-12-06T11:55:55.807Z,42.33
2016-12-06T11:56:55.836Z,42.43
2016-12-06T11:57:55.869Z,42.05
2016-12-06T11:58:55.881Z,42.43
2016-12-06T11:59:55.918Z,42.24
2016-12-06T12:00:55.631Z,42.33
2016-12-06T12:01:55.668Z,42.14
2016-12-06T12:02:55.692Z,43.2
2016-12-06T12:03:56.025Z,43.11
2016-12-06T12:04:56.050Z,43.01
2016-12-06T12:05:56.078Z,43.01
2016-12-06T12:06:56.098Z,43.49
2016-12-06T12:07:55.827Z,43.88
2016-12-06T12:08:55.848Z,43.78
2016-12-06T12:09:56.180Z,43.68
2016-12-06T12:10:56.208Z,44.35
2016-12-06T12:11:55.942Z,44.26
2016-12-06T12:12:56.271Z,44.07
2016-12-06T12:13:55.992Z,44.26
2016-12-06T12:14:56.316Z,43.99
2016-12-06T12:15:56.040Z,44.07
2016-12-06T12:16:56.065Z,44.07
2016-12-06T12:17:56.094Z,44.65
2016-12-06T12:18:56.127Z,44.74
2016-12-06T12:19:56.156Z,44.74
2016-12-06T12:20:56.485Z,44.65
2016-12-06T12:21:56.508Z,44.26
2016-12-06T12:22:56.225Z,44.84
2016-12-06T12:23:56.263Z,45.22
2016-12-06T12:24:56.588Z,45.32
2016-12-06T12:25:56.609Z,45.42
2016-12-06T12:26:56.338Z,45.13
2016-12-06T12:27:56.666Z,45.03
2016-12-06T12:28:56.695Z,45.03
2016-12-06T12:29:56.719Z,45.51
2016-12-06T12:30:56.446Z,45.7
2016-12-06T12:31:56.476Z,45.7
2016-12-06T12:32:56.493Z,45.42
2016-12-06T12:33:56.830Z,45.9
2016-12-06T12:34:56.858Z,46.09
2016-12-06T12:35:56.882Z,45.9
2016-12-06T12:36:56.904Z,45.9
2016-12-06T12:37:56.633Z,45.99
2016-12-06T12:38:56.666Z,46.09
2016-12-06T12:39:56.986Z,46.28
2016-12-06T12:40:56.711Z,46.28
2016-12-06T12:41:57.044Z,46.57
2016-12-06T12:42:57.068Z,46.38
2016-12-06T12:43:56.797Z,46.38
2016-12-06T12:44:56.822Z,46.57
2016-12-06T12:45:56.850Z,46.77
2016-12-06T12:46:57.211Z,46.47
2016-12-06T12:47:57.212Z,47.24
2016-12-06T12:48:56.933Z,46.95
2016-12-06T12:49:56.962Z,47.15
2016-12-06T12:50:57.281Z,46.86
2016-12-06T12:51:57.006Z,47.15
2016-12-06T12:52:57.039Z,47.05
2016-12-06T12:53:57.064Z,47.05
2016-12-06T12:54:57.098Z,47.05
2016-12-06T12:55:57.421Z,47.15
2016-12-06T12:56:57.150Z,47.15
2016-12-06T12:57:57.170Z,47.44
2016-12-06T12:58:57.499Z,47.44
2016-12-06T12:59:57.232Z,47.34
2016-12-06T13:00:57.249Z,47.53